^^
Saratoga-Weather Station Historical Data
Daily Summary for February 15, 2020 Units:  English    Metric   Both
Daily Weekly Monthly Yearly Custom
  High: Low: Average:
Temperature: 75 °F 54.1 °F 65.7 °F
Dew Point: 59.9 °F 52.2 °F 56.7 °F
Humidity: 94% 52% 74%
Wind Speed: 11mph 0mph 2.7mph
Wind Gust: 13mph - -
Wind- - West
Pressure: 30 in 30 in -
Precipitation: 0 in    
Historical Graphs
 
 
Tabular Data for February 15, 2020
Time Temperature Dew Point Pressure Wind Wind Speed Wind Gust Humidity Rainfall Rate (Hourly) solar
00:03 62.4 °F 56.5 °F 30 in WNW 2.9 mph 3 mph 81% 0 in 0 W/m2
00:08 62.4 °F 56.5 °F 30 in WSW 4 mph 4 mph 81% 0 in 0 W/m2
00:13 62.4 °F 56.5 °F 30 in West 6 mph 6 mph 81% 0 in 0 W/m2
00:18 62.4 °F 56.5 °F 30 in West 2.9 mph 4 mph 81% 0 in 0 W/m2
00:23 62.2 °F 56.3 °F 30 in WSW 4.9 mph 5 mph 81% 0 in 0 W/m2
00:28 62.2 °F 56.3 °F 30 in WSW 2 mph 4 mph 81% 0 in 0 W/m2
00:33 62.1 °F 56.1 °F 30 in West 4 mph 4 mph 81% 0 in 0 W/m2
00:38 62.1 °F 56.5 °F 30 in WNW 2.9 mph 8 mph 82% 0 in 0 W/m2
00:43 62.1 °F 56.5 °F 30 in West 0.9 mph 5 mph 82% 0 in 0 W/m2
00:48 61.9 °F 56.3 °F 30 in SW 2.9 mph 7 mph 82% 0 in 0 W/m2
00:53 61.9 °F 56.3 °F 30 in West 2.9 mph 7 mph 82% 0 in 0 W/m2
00:58 61.7 °F 56.1 °F 30 in WNW 4 mph 5 mph 82% 0 in 0 W/m2
01:03 61.7 °F 56.1 °F 30 in WNW 2.9 mph 4 mph 82% 0 in 0 W/m2
01:08 61.7 °F 56.1 °F 30 in WNW 8 mph 8 mph 82% 0 in 0 W/m2
01:14 61.5 °F 55.9 °F 30 in WSW 4 mph 4 mph 82% 0 in 0 W/m2
01:19 61.3 °F 55.8 °F 30 in West 2.9 mph 7 mph 82% 0 in 0 W/m2
01:24 61.2 °F 55.9 °F 30 in West 4 mph 4 mph 83% 0 in 0 W/m2
01:29 61.2 °F 55.9 °F 30 in West 2.9 mph 4 mph 83% 0 in 0 W/m2
01:34 61 °F 55.8 °F 30 in West 2.9 mph 7 mph 83% 0 in 0 W/m2
01:39 61 °F 55.8 °F 30 in WSW 2.9 mph 6 mph 83% 0 in 0 W/m2
01:44 61 °F 55.4 °F 30 in WNW 2 mph 7 mph 82% 0 in 0 W/m2
01:49 61 °F 55.4 °F 30 in West 0.9 mph 4 mph 82% 0 in 0 W/m2
01:54 61 °F 55.4 °F 30 in WNW 4.9 mph 7 mph 82% 0 in 0 W/m2
01:59 61 °F 55.4 °F 30 in West 2 mph 8 mph 82% 0 in 0 W/m2
02:04 60.8 °F 55.2 °F 30 in West 6.9 mph 7 mph 82% 0 in 0 W/m2
02:09 60.8 °F 55.2 °F 30 in West 2.9 mph 3 mph 82% 0 in 0 W/m2
02:14 60.6 °F 55 °F 30 in West 4 mph 8 mph 82% 0 in 0 W/m2
02:19 60.6 °F 55.4 °F 30 in WSW 4.9 mph 8 mph 83% 0 in 0 W/m2
02:24 60.4 °F 55.2 °F 30 in WNW 4.9 mph 5 mph 83% 0 in 0 W/m2
02:29 60.4 °F 55.2 °F 30 in West 6.9 mph 8 mph 83% 0 in 0 W/m2
02:34 60.3 °F 55 °F 30 in West 4 mph 4 mph 83% 0 in 0 W/m2
02:39 60.3 °F 55 °F 30 in WNW 0.9 mph 4 mph 83% 0 in 0 W/m2
02:44 60.3 °F 55 °F 30 in WNW 2.9 mph 7 mph 83% 0 in 0 W/m2
02:49 60.3 °F 54.7 °F 30 in West 2.9 mph 4 mph 82% 0 in 0 W/m2
02:54 60.3 °F 54.7 °F 30 in West 4 mph 4 mph 82% 0 in 0 W/m2
02:59 60.1 °F 54.5 °F 30 in West 4 mph 4 mph 82% 0 in 0 W/m2
03:04 60.3 °F 54.7 °F 30 in WNW 2 mph 3 mph 82% 0 in 0 W/m2
03:09 60.3 °F 54.7 °F 30 in WNW 2.9 mph 9 mph 82% 0 in 0 W/m2
03:14 60.3 °F 54.7 °F 30 in West 2 mph 6 mph 82% 0 in 0 W/m2
03:19 60.3 °F 54.7 °F 30 in Calm   3 mph 82% 0 in 0 W/m2
03:24 60.1 °F 54.5 °F 30 in West 0.9 mph 4 mph 82% 0 in 0 W/m2
03:29 59.7 °F 54.5 °F 30 in WSW 2 mph 4 mph 83% 0 in 0 W/m2
03:34 59.9 °F 54.3 °F 30 in West 6 mph 8 mph 82% 0 in 0 W/m2
03:39 60.1 °F 54.5 °F 30 in NW 2 mph 7 mph 82% 0 in 0 W/m2
03:44 59.7 °F 54.5 °F 30 in Calm   8 mph 83% 0 in 0 W/m2
03:49 59.4 °F 54.5 °F 30 in Calm   1 mph 84% 0 in 0 W/m2
03:54 58.6 °F 54.1 °F 30 in WNW 2 mph 2 mph 85% 0 in 0 W/m2
03:59 58.3 °F 54.1 °F 30 in NNW 0.9 mph 1 mph 86% 0 in 0 W/m2
04:04 57.7 °F 54 °F 30 in Calm   2 mph 87% 0 in 0 W/m2
04:10 57.4 °F 53.8 °F 30 in Calm     88% 0 in 0 W/m2
04:15 56.8 °F 53.2 °F 30 in Calm     88% 0 in 0 W/m2
04:20 56.7 °F 53.4 °F 30 in Calm   2 mph 89% 0 in 0 W/m2
04:25 56.3 °F 53.4 °F 30 in Calm   2 mph 90% 0 in 0 W/m2
04:30 55.9 °F 53.1 °F 30 in Calm     90% 0 in 0 W/m2
04:35 55.9 °F 53.4 °F 30 in Calm     91% 0 in 0 W/m2
04:40 55.6 °F 53.1 °F 30 in Calm     91% 0 in 0 W/m2
04:45 55.6 °F 53.1 °F 30 in Calm     91% 0 in 0 W/m2
04:50 55.2 °F 52.7 °F 30 in Calm     91% 0 in 0 W/m2
04:55 55 °F 52.7 °F 30 in Calm   1 mph 92% 0 in 0 W/m2
05:00 54.9 °F 52.5 °F 30 in Calm     92% 0 in 0 W/m2
05:05 54.9 °F 52.5 °F 30 in Calm     92% 0 in 0 W/m2
05:10 54.7 °F 52.3 °F 30 in Calm     92% 0 in 0 W/m2
05:15 54.5 °F 52.2 °F 30 in Calm     92% 0 in 0 W/m2
05:20 54.3 °F 52.3 °F 30 in Calm     93% 0 in 0 W/m2
05:25 54.1 °F 52.2 °F 30 in Calm     93% 0 in 0 W/m2
05:30 54.1 °F 52.2 °F 30 in Calm     93% 0 in 0 W/m2
05:35 54.1 °F 52.2 °F 30 in Calm   1 mph 93% 0 in 0 W/m2
05:40 54.1 °F 52.2 °F 30 in Calm     93% 0 in 7 W/m2
05:45 54.1 °F 52.2 °F 30 in Calm     93% 0 in 11 W/m2
05:50 54.1 °F 52.5 °F 30 in NNE 0.9 mph 2 mph 94% 0 in 14 W/m2
05:55 54.1 °F 52.5 °F 30 in Calm   1 mph 94% 0 in 18 W/m2
06:00 54.1 °F 52.5 °F 30 in Calm   1 mph 94% 0 in 21 W/m2
06:05 54.3 °F 52.7 °F 30 in ENE 2 mph 2 mph 94% 0 in 26 W/m2
06:11 54.3 °F 52.7 °F 30 in Calm   1 mph 94% 0 in 32 W/m2
06:16 54.5 °F 52.9 °F 30 in ENE 2 mph 2 mph 94% 0 in 35 W/m2
06:21 54.7 °F 53.1 °F 30 in ESE 2 mph 2 mph 94% 0 in 39 W/m2
06:26 54.7 °F 53.1 °F 30 in ESE 0.9 mph 2 mph 94% 0 in 42 W/m2
06:31 54.9 °F 53.2 °F 30 in Calm     94% 0 in 46 W/m2
06:36 55 °F 53.4 °F 30 in Calm     94% 0 in 53 W/m2
06:41 55 °F 53.4 °F 30 in Calm     94% 0 in 56 W/m2
06:46 55.2 °F 53.6 °F 30 in ESE 0.9 mph 1 mph 94% 0 in 63 W/m2
06:51 55.4 °F 53.8 °F 30 in Calm   1 mph 94% 0 in 74 W/m2
06:56 55.8 °F 54.1 °F 30 in Calm     94% 0 in 74 W/m2
07:01 55.9 °F 54.3 °F 30 in Calm     94% 0 in 84 W/m2
07:06 56.1 °F 54.5 °F 30 in Calm     94% 0 in 79 W/m2
07:11 56.5 °F 54.5 °F 30 in Calm     93% 0 in 88 W/m2
07:16 56.8 °F 54.9 °F 30 in Calm     93% 0 in 91 W/m2
07:21 57.2 °F 55.2 °F 30 in ESE 0.9 mph 1 mph 93% 0 in 100 W/m2
07:26 57.6 °F 55.2 °F 30 in Calm     92% 0 in 107 W/m2
07:31 58.1 °F 55.4 °F 30 in Calm     91% 0 in 111 W/m2
07:36 58.6 °F 55.8 °F 30 in Calm     90% 0 in 114 W/m2
07:41 59.2 °F 55.9 °F 30 in ENE 0.9 mph 2 mph 89% 0 in 243 W/m2
07:46 59.7 °F 56.1 °F 30 in Calm   1 mph 88% 0 in 250 W/m2
07:51 60.6 °F 56.7 °F 30 in NE 0.9 mph 3 mph 87% 0 in 232 W/m2
07:56 61.3 °F 56.8 °F 30 in WSW 0.9 mph 1 mph 85% 0 in 290 W/m2
08:01 62.1 °F 56.8 °F 30 in WSW 2.9 mph 3 mph 83% 0 in 306 W/m2
08:06 62.4 °F 56.8 °F 30 in NW 2 mph 2 mph 82% 0 in 262 W/m2
08:11 62.8 °F 56.8 °F 30 in Calm   2 mph 81% 0 in 257 W/m2
08:16 63 °F 57 °F 30 in Calm   2 mph 81% 0 in 292 W/m2
08:21 63.1 °F 56.8 °F 30 in NNW 2.9 mph 3 mph 80% 0 in 318 W/m2
08:26 63.3 °F 57 °F 30 in NNW 0.9 mph 5 mph 80% 0 in 302 W/m2
08:31 63.7 °F 57 °F 30 in West 0.9 mph 2 mph 79% 0 in 325 W/m2
08:36 63.9 °F 57.2 °F 30 in Calm   4 mph 79% 0 in 350 W/m2
08:41 64 °F 57.4 °F 30 in NNW 2 mph 3 mph 79% 0 in 399 W/m2
08:46 64.2 °F 57.2 °F 30 in WNW 2 mph 4 mph 78% 0 in 336 W/m2
08:51 64.6 °F 57.9 °F 30 in West 2 mph 3 mph 79% 0 in 362 W/m2
08:56 64.6 °F 57.6 °F 30 in NW 2 mph 4 mph 78% 0 in 396 W/m2
09:01 64.6 °F 57.9 °F 30 in WNW 4.9 mph 8 mph 79% 0 in 418 W/m2
09:06 64.6 °F 57.9 °F 30 in WNW 4 mph 5 mph 79% 0 in 457 W/m2
09:11 64.6 °F 57.9 °F 30 in WNW 0.9 mph 2 mph 79% 0 in 466 W/m2
09:16 64.9 °F 58.6 °F 30 in Calm   1 mph 80% 0 in 480 W/m2
09:21 65.1 °F 57.7 °F 30 in NW 4.9 mph 5 mph 77% 0 in 316 W/m2
09:26 64.6 °F 57.6 °F 30 in NW 4 mph 5 mph 78% 0 in 427 W/m2
09:31 64.2 °F 57.6 °F 30 in WSW 4 mph 6 mph 79% 0 in 362 W/m2
09:36 64 °F 57.4 °F 30 in NW 4 mph 10 mph 79% 0 in 432 W/m2
09:41 64 °F 57.4 °F 30 in WNW 4 mph 9 mph 79% 0 in 445 W/m2
09:47 63.9 °F 57.6 °F 30 in SW 6 mph 9 mph 80% 0 in 570 W/m2
09:52 63.9 °F 57.9 °F 30 in NW 6 mph 8 mph 81% 0 in 605 W/m2
09:57 64.4 °F 58.5 °F 30 in West 8.1 mph 8 mph 81% 0 in 601 W/m2
10:02 64.6 °F 58.3 °F 30 in WNW 8.1 mph 13 mph 80% 0 in 480 W/m2
10:07 64.6 °F 58.3 °F 30 in WNW 4.9 mph 8 mph 80% 0 in 496 W/m2
10:12 64.9 °F 58.6 °F 30 in West 2 mph 13 mph 80% 0 in 134 W/m2
10:17 65.5 °F 59.2 °F 30 in WNW 6.9 mph 7 mph 80% 0 in 524 W/m2
10:22 65.5 °F 58.8 °F 30 in West 8.1 mph 13 mph 79% 0 in 640 W/m2
10:27 66 °F 59 °F 30 in West 8.1 mph 9 mph 78% 0 in 557 W/m2
10:32 66.4 °F 59 °F 30 in West 6 mph 10 mph 77% 0 in 594 W/m2
10:37 66.6 °F 59.2 °F 30 in WNW 2.9 mph 6 mph 77% 0 in 696 W/m2
10:42 66.7 °F 59 °F 30 in WSW 4.9 mph 7 mph 76% 0 in 719 W/m2
10:47 66.7 °F 58.6 °F 30 in West 4 mph 10 mph 75% 0 in 735 W/m2
10:52 67.3 °F 59.5 °F 30 in West 2.9 mph 6 mph 76% 0 in 715 W/m2
10:57 67.6 °F 59.4 °F 30 in SW 2.9 mph 8 mph 75% 0 in 737 W/m2
11:02 68.2 °F 59.9 °F 30 in NW 2.9 mph 10 mph 75% 0 in 786 W/m2
11:07 68.4 °F 59.4 °F 30 in West 8.9 mph 9 mph 73% 0 in 710 W/m2
11:12 68.4 °F 59.4 °F 30 in SSW 2 mph 7 mph 73% 0 in 788 W/m2
11:17 68.5 °F 59.5 °F 30 in NE 0.9 mph 6 mph 73% 0 in 798 W/m2
11:22 69.3 °F 59.9 °F 30 in WNW 2 mph 4 mph 72% 0 in 838 W/m2
11:27 69.4 °F 59.2 °F 30 in West 2 mph 3 mph 70% 0 in 902 W/m2
11:32 69.8 °F 59.2 °F 30 in West 2.9 mph 7 mph 69% 0 in 353 W/m2
11:37 69.8 °F 59.2 °F 30 in Calm   2 mph 69% 0 in 302 W/m2
11:42 69.6 °F 58.6 °F 30 in WNW 11 mph 11 mph 68% 0 in 234 W/m2
11:47 68.9 °F 58.6 °F 30 in West 2.9 mph 6 mph 70% 0 in 281 W/m2
11:52 68.5 °F 58.8 °F 30 in West 4 mph 5 mph 71% 0 in 336 W/m2
11:57 68.9 °F 59.9 °F 30 in NNW 4.9 mph 6 mph 73% 0 in 1111 W/m2
12:02 69.6 °F 59 °F 30 in West 6 mph 7 mph 69% 0 in 1155 W/m2
12:07 69.8 °F 59.2 °F 30 in WSW 2.9 mph 8 mph 69% 0 in 422 W/m2
12:12 69.4 °F 58.8 °F 30 in WSW 2.9 mph 6 mph 69% 0 in 473 W/m2
12:17 69.3 °F 59 °F 30 in West 6.9 mph 9 mph 70% 0 in 392 W/m2
12:22 69.1 °F 58.8 °F 30 in WNW 6.9 mph 8 mph 70% 0 in 387 W/m2
12:27 69.1 °F 58.8 °F 30 in WNW 2.9 mph 9 mph 70% 0 in 359 W/m2
12:32 68.9 °F 58.6 °F 30 in WSW 6.9 mph 8 mph 70% 0 in 345 W/m2
12:37 68.7 °F 59.4 °F 30 in West 6 mph 7 mph 72% 0 in 371 W/m2
12:42 68.7 °F 59 °F 30 in WNW 6 mph 6 mph 71% 0 in 357 W/m2
12:47 68.9 °F 58.6 °F 30 in WNW 2.9 mph 5 mph 70% 0 in 387 W/m2
12:52 69.1 °F 58.5 °F 30 in WNW 4.9 mph 8 mph 69% 0 in 404 W/m2
12:57 69.1 °F 58.5 °F 30 in NNW 2.9 mph 7 mph 69% 0 in 431 W/m2
13:02 69.3 °F 58.6 °F 30 in NW 6.9 mph 8 mph 69% 0 in 573 W/m2
13:07 69.4 °F 58.5 °F 30 in NW 4 mph 9 mph 68% 0 in 598 W/m2
13:12 69.6 °F 59 °F 30 in NW 4 mph 8 mph 69% 0 in 622 W/m2
13:17 70.2 °F 58.6 °F 30 in NNW 6 mph 9 mph 67% 0 in 1187 W/m2
13:22 70.7 °F 59.2 °F 30 in NNW 6 mph 10 mph 67% 0 in 1099 W/m2
13:27 71.1 °F 59.5 °F 30 in West 8.9 mph 9 mph 67% 0 in 541 W/m2
13:32 70.5 °F 58.6 °F 30 in WNW 4.9 mph 10 mph 66% 0 in 494 W/m2
13:37 70.3 °F 58.5 °F 30 in WNW 4 mph 8 mph 66% 0 in 420 W/m2
13:42 70.3 °F 58.5 °F 30 in WSW 6.9 mph 9 mph 66% 0 in 450 W/m2
13:47 70.5 °F 59.4 °F 30 in NW 4 mph 6 mph 68% 0 in 747 W/m2
13:57 71.6 °F 59.2 °F 30 in WNW 4.9 mph 8 mph 65% 0 in 967 W/m2
14:02 71.4 °F 58.6 °F 30 in WNW 2.9 mph 10 mph 64% 0 in 471 W/m2
14:07 71.1 °F 59.2 °F 30 in WSW 4 mph 8 mph 66% 0 in 441 W/m2
14:12 70.9 °F 59 °F 30 in West 2 mph 10 mph 66% 0 in 480 W/m2
14:17 70.9 °F 58.1 °F 30 in North 6 mph 8 mph 64% 0 in 668 W/m2
14:22 71.1 °F 57.7 °F 30 in NW 8.1 mph 10 mph 63% 0 in 464 W/m2
14:27 71.1 °F 57.7 °F 30 in SW 8.1 mph 8 mph 63% 0 in 438 W/m2
14:32 71.1 °F 58.3 °F 30 in NNW 0.9 mph 10 mph 64% 0 in 454 W/m2
14:37 71.2 °F 57.9 °F 30 in SW 4 mph 7 mph 63% 0 in 712 W/m2
14:42 71.8 °F 59 °F 30 in SW 4.9 mph 7 mph 64% 0 in 659 W/m2
14:47 72 °F 58.3 °F 30 in West 6 mph 8 mph 62% 0 in 390 W/m2
14:52 72.1 °F 58.5 °F 30 in NNW 2 mph 7 mph 62% 0 in 756 W/m2
14:57 72.1 °F 58.8 °F 30 in West 4 mph 6 mph 63% 0 in 308 W/m2
15:02 72 °F 57.7 °F 30 in West 8.1 mph 8 mph 61% 0 in 397 W/m2
15:08 72.3 °F 58.6 °F 30 in NW 4 mph 7 mph 62% 0 in 735 W/m2
15:13 72.9 °F 58.6 °F 30 in West 6.9 mph 10 mph 61% 0 in 679 W/m2
15:18 72.9 °F 58.1 °F 30 in WNW 4.9 mph 7 mph 60% 0 in 786 W/m2
15:23 73 °F 58.3 °F 30 in NW 6 mph 8 mph 60% 0 in 800 W/m2
15:28 73 °F 57.4 °F 30 in WNW 2.9 mph 8 mph 58% 0 in 840 W/m2
15:33 73.6 °F 58.3 °F 30 in West 2.9 mph 4 mph 59% 0 in 860 W/m2
15:38 73.9 °F 58.3 °F 30 in WSW 8.9 mph 12 mph 58% 0 in 842 W/m2
15:43 73.8 °F 58.1 °F 30 in NW 4.9 mph 7 mph 58% 0 in 838 W/m2
15:48 73.9 °F 58.3 °F 30 in North 4.9 mph 5 mph 58% 0 in 751 W/m2
15:53 74.3 °F 58.6 °F 30 in West 0.9 mph 4 mph 58% 0 in 777 W/m2
15:58 74.3 °F 58.1 °F 30 in WNW 2.9 mph 4 mph 57% 0 in 701 W/m2
16:03 74.1 °F 57.4 °F 30 in WNW 2.9 mph 7 mph 56% 0 in 635 W/m2
16:08 73.8 °F 57.6 °F 30 in SW 2.9 mph 9 mph 57% 0 in 584 W/m2
16:13 73.6 °F 58.3 °F 30 in West 2.9 mph 6 mph 59% 0 in 577 W/m2
16:18 73.2 °F 57.6 °F 30 in WSW 6.9 mph 11 mph 58% 0 in 561 W/m2
16:23 73.6 °F 56.8 °F 30 in West 2.9 mph 8 mph 56% 0 in 555 W/m2
16:28 73.8 °F 57 °F 30 in North 2.9 mph 5 mph 56% 0 in 592 W/m2
16:33 74.1 °F 56.5 °F 30 in WNW 4.9 mph 6 mph 54% 0 in 643 W/m2
16:39 74.1 °F 55.4 °F 30 in NNW 2 mph 7 mph 52% 0 in 640 W/m2
16:44 74.7 °F 57.4 °F 30 in NW 2.9 mph 8 mph 55% 0 in 461 W/m2
16:49 74.7 °F 57.9 °F 30 in WNW 2.9 mph 6 mph 56% 0 in 686 W/m2
16:54 75 °F 57.2 °F 30 in WSW 4.9 mph 8 mph 54% 0 in 728 W/m2
16:59 74.5 °F 57.2 °F 30 in WSW 4 mph 9 mph 55% 0 in 258 W/m2
17:04 73.8 °F 57 °F 30 in WNW 2.9 mph 6 mph 56% 0 in 717 W/m2
17:09 73.9 °F 57.7 °F 30 in NNW 2.9 mph 4 mph 57% 0 in 599 W/m2
17:14 73.9 °F 57.7 °F 30 in SSW 2.9 mph 9 mph 57% 0 in 445 W/m2
17:19 73.8 °F 57.6 °F 30 in West 2 mph 10 mph 57% 0 in 199 W/m2
17:24 73.2 °F 57.6 °F 30 in WSW 2.9 mph 8 mph 58% 0 in 297 W/m2
17:29 73 °F 57.4 °F 30 in West 2 mph 10 mph 58% 0 in 327 W/m2
17:34 72.9 °F 57.2 °F 30 in West 4 mph 6 mph 58% 0 in 355 W/m2
17:39 72.7 °F 56.5 °F 30 in West 6 mph 10 mph 57% 0 in 250 W/m2
17:44 72.3 °F 57.7 °F 30 in WSW 4.9 mph 7 mph 60% 0 in 232 W/m2
17:49 72.1 °F 57.9 °F 30 in West 2.9 mph 9 mph 61% 0 in 221 W/m2
17:54 72.1 °F 57.6 °F 30 in NE 2.9 mph 5 mph 60% 0 in 229 W/m2
17:59 72.1 °F 57.6 °F 30 in WNW 2.9 mph 6 mph 60% 0 in 218 W/m2
18:04 72 °F 57.7 °F 30 in West 6.9 mph 10 mph 61% 0 in 193 W/m2
18:09 71.8 °F 57.2 °F 30 in WSW 2.9 mph 6 mph 60% 0 in 183 W/m2
18:14 71.8 °F 57.2 °F 30 in West 2 mph 4 mph 60% 0 in 165 W/m2
18:19 71.8 °F 56.7 °F 30 in WNW 2 mph 8 mph 59% 0 in 156 W/m2
18:24 71.8 °F 57.2 °F 30 in West 4 mph 6 mph 60% 0 in 141 W/m2
18:29 71.8 °F 56.7 °F 30 in West 2.9 mph 6 mph 59% 0 in 148 W/m2
18:34 71.6 °F 56.5 °F 30 in WNW 2 mph 4 mph 59% 0 in 155 W/m2
18:39 71.4 °F 56.8 °F 30 in Calm   3 mph 60% 0 in 141 W/m2
18:44 71.6 °F 57.4 °F 30 in WSW 2.9 mph 3 mph 61% 0 in 134 W/m2
18:49 71.6 °F 57 °F 30 in WSW 2.9 mph 4 mph 60% 0 in 123 W/m2
18:54 71.6 °F 56.1 °F 30 in NW 0.9 mph 4 mph 58% 0 in 113 W/m2
18:59 71.8 °F 56.7 °F 30 in NW 2 mph 3 mph 59% 0 in 125 W/m2
19:04 71.8 °F 57.6 °F 30 in WSW 0.9 mph 2 mph 61% 0 in 135 W/m2
19:09 72 °F 56.8 °F 30 in West 0.9 mph 3 mph 59% 0 in 221 W/m2
19:14 72.1 °F 56.5 °F 30 in NW 2 mph 4 mph 58% 0 in 137 W/m2
19:19 72.3 °F 56.7 °F 30 in NW 2.9 mph 3 mph 58% 0 in 134 W/m2
19:24 72.3 °F 57.7 °F 30 in WNW 0.9 mph 2 mph 60% 0 in 130 W/m2
19:29 72.3 °F 57.7 °F 30 in West 2 mph 3 mph 60% 0 in 95 W/m2
19:34 72 °F 56.3 °F 30 in WSW 2.9 mph 6 mph 58% 0 in 86 W/m2
19:39 71.8 °F 57.2 °F 30 in West 0.9 mph 3 mph 60% 0 in 69 W/m2
19:44 71.6 °F 57 °F 30 in West 0.9 mph 6 mph 60% 0 in 67 W/m2
19:49 71.4 °F 57.2 °F 30 in West 2 mph 2 mph 61% 0 in 67 W/m2
19:54 71.4 °F 57.7 °F 30 in Calm   3 mph 62% 0 in 74 W/m2
20:00 71.4 °F 57.2 °F 30 in West 0.9 mph 2 mph 61% 0 in 88 W/m2
20:05 71.4 °F 58.6 °F 30 in West 0.9 mph 1 mph 64% 0 in 81 W/m2
20:10 71.8 °F 59.4 °F 30 in West 0.9 mph 1 mph 65% 0 in 62 W/m2
20:15 71.6 °F 58.3 °F 30 in West 0.9 mph 2 mph 63% 0 in 60 W/m2
20:20 71.4 °F 57.2 °F 30 in WNW 0.9 mph 3 mph 61% 0 in 54 W/m2
20:25 71.2 °F 57.9 °F 30 in Calm     63% 0 in 56 W/m2
20:30 71.1 °F 57.7 °F 30 in West 2 mph 3 mph 63% 0 in 65 W/m2
20:35 71.2 °F 58.8 °F 30 in Calm     65% 0 in 65 W/m2
20:40 71.2 °F 58.8 °F 30 in Calm     65% 0 in 62 W/m2
20:45 71.4 °F 59.5 °F 30 in Calm   1 mph 66% 0 in 58 W/m2
20:50 71.2 °F 58.8 °F 30 in WSW 0.9 mph 1 mph 65% 0 in 53 W/m2
20:55 71.2 °F 57.6 °F 30 in West 0.9 mph 2 mph 62% 0 in 46 W/m2
21:00 70.9 °F 57.7 °F 30 in West 0.9 mph 3 mph 63% 0 in 39 W/m2
21:05 70.5 °F 57.7 °F 30 in WSW 2 mph 2 mph 64% 0 in 35 W/m2
21:10 70.3 °F 57.6 °F 30 in WSW 2 mph 3 mph 64% 0 in 32 W/m2
21:15 70 °F 57.2 °F 30 in West 4 mph 4 mph 64% 0 in 25 W/m2
21:20 69.6 °F 57.4 °F 30 in WSW 0.9 mph 2 mph 65% 0 in 21 W/m2
21:25 69.3 °F 57 °F 30 in West 0.9 mph 4 mph 65% 0 in 19 W/m2
21:30 69.1 °F 57.2 °F 30 in WSW 2 mph 2 mph 66% 0 in 16 W/m2
21:35 68.7 °F 57.4 °F 30 in SW 0.9 mph 4 mph 67% 0 in 12 W/m2
21:40 68.4 °F 57 °F 30 in Calm   2 mph 67% 0 in 7 W/m2
21:45 68.2 °F 56.8 °F 30 in West 0.9 mph 3 mph 67% 0 in 5 W/m2
21:50 67.8 °F 56.5 °F 30 in West 2 mph 6 mph 67% 0 in 0 W/m2
21:55 67.6 °F 56.3 °F 30 in Calm   2 mph 67% 0 in 0 W/m2
22:00 67.5 °F 56.5 °F 30 in West 0.9 mph 3 mph 68% 0 in 0 W/m2
22:05 67.1 °F 56.1 °F 30 in West 2 mph 4 mph 68% 0 in 0 W/m2
22:10 66.9 °F 55.9 °F 30 in West 0.9 mph 3 mph 68% 0 in 0 W/m2
22:15 66.7 °F 55.8 °F 30 in WSW 2 mph 4 mph 68% 0 in 0 W/m2
22:20 66.7 °F 55.8 °F 30 in WSW 0.9 mph 4 mph 68% 0 in 0 W/m2
22:25 66.7 °F 56.3 °F 30 in Calm   1 mph 69% 0 in 0 W/m2
22:30 66.6 °F 56.1 °F 30 in WSW 0.9 mph 2 mph 69% 0 in 0 W/m2
22:35 66.4 °F 56.3 °F 30 in WSW 2 mph 2 mph 70% 0 in 0 W/m2
22:40 65.8 °F 55.8 °F 30 in Calm   2 mph 70% 0 in 0 W/m2
22:45 65.7 °F 55.9 °F 30 in Calm   1 mph 71% 0 in 0 W/m2
22:50 65.5 °F 55.8 °F 30 in West 0.9 mph 2 mph 71% 0 in 0 W/m2
22:55 65.3 °F 55.6 °F 30 in West 2 mph 7 mph 71% 0 in 0 W/m2
23:00 65.5 °F 55.8 °F 30 in WNW 2 mph 2 mph 71% 0 in 0 W/m2
23:05 65.5 °F 55.8 °F 30 in WNW 2 mph 5 mph 71% 0 in 0 W/m2
23:10 65.3 °F 56.1 °F 30 in WNW 2 mph 4 mph 72% 0 in 0 W/m2
23:15 65.3 °F 56.1 °F 30 in West 2.9 mph 6 mph 72% 0 in 0 W/m2
23:20 65.3 °F 56.1 °F 30 in WNW 2.9 mph 4 mph 72% 0 in 0 W/m2
23:26 65.3 °F 56.1 °F 30 in West 2.9 mph 6 mph 72% 0 in 0 W/m2
23:31 65.1 °F 55.4 °F 30 in NW 0.9 mph 4 mph 71% 0 in 0 W/m2
23:36 65.1 °F 55.9 °F 30 in West 0.9 mph 3 mph 72% 0 in 0 W/m2
23:41 64.9 °F 55.8 °F 30 in West 2 mph 2 mph 72% 0 in 0 W/m2
23:46 64.8 °F 55.6 °F 30 in NW 2.9 mph 3 mph 72% 0 in 0 W/m2
23:51 64.8 °F 55.6 °F 30 in West 2 mph 3 mph 72% 0 in 0 W/m2
23:56 64.6 °F 55.8 °F 30 in Calm   4 mph 73% 0 in 0 W/m2
Juneau County Weather
Compliments of Weather Underground - 4 mb